sensor_id;sensor_type;location;lat;lon;timestamp;P1;durP1;ratioP1;P2;durP2;ratioP2
42124;SDS011;27787;44.594;11.046;2024-02-16T00:02:17;64.15;;;29.88;;
42124;SDS011;27787;44.594;11.046;2024-02-16T00:05:01;63.30;;;30.13;;
42124;SDS011;27787;44.594;11.046;2024-02-16T00:07:47;62.35;;;31.05;;
42124;SDS011;27787;44.594;11.046;2024-02-16T00:10:31;67.93;;;30.30;;
42124;SDS011;27787;44.594;11.046;2024-02-16T00:13:16;64.38;;;30.45;;
42124;SDS011;27787;44.594;11.046;2024-02-16T00:16:00;69.43;;;30.95;;
42124;SDS011;27787;44.594;11.046;2024-02-16T00:18:44;67.78;;;29.83;;
42124;SDS011;27787;44.594;11.046;2024-02-16T00:21:28;60.10;;;27.63;;
42124;SDS011;27787;44.594;11.046;2024-02-16T00:24:12;63.70;;;28.50;;
42124;SDS011;27787;44.594;11.046;2024-02-16T00:26:57;60.22;;;27.50;;
42124;SDS011;27787;44.594;11.046;2024-02-16T00:29:41;55.65;;;27.05;;
42124;SDS011;27787;44.594;11.046;2024-02-16T00:32:25;65.43;;;28.08;;
42124;SDS011;27787;44.594;11.046;2024-02-16T00:35:17;61.03;;;26.42;;
42124;SDS011;27787;44.594;11.046;2024-02-16T00:38:01;58.03;;;27.55;;
42124;SDS011;27787;44.594;11.046;2024-02-16T00:40:46;56.85;;;27.48;;
42124;SDS011;27787;44.594;11.046;2024-02-16T00:43:30;55.03;;;25.77;;
42124;SDS011;27787;44.594;11.046;2024-02-16T00:46:13;61.40;;;26.90;;
42124;SDS011;27787;44.594;11.046;2024-02-16T00:48:58;57.63;;;26.65;;
42124;SDS011;27787;44.594;11.046;2024-02-16T00:51:42;51.45;;;24.88;;
42124;SDS011;27787;44.594;11.046;2024-02-16T00:54:26;53.35;;;24.17;;
42124;SDS011;27787;44.594;11.046;2024-02-16T00:57:11;57.83;;;24.90;;
42124;SDS011;27787;44.594;11.046;2024-02-16T00:59:55;55.03;;;25.73;;
42124;SDS011;27787;44.594;11.046;2024-02-16T01:02:39;57.30;;;25.63;;
42124;SDS011;27787;44.594;11.046;2024-02-16T01:05:23;56.25;;;26.17;;
42124;SDS011;27787;44.594;11.046;2024-02-16T01:08:07;54.00;;;26.27;;
42124;SDS011;27787;44.594;11.046;2024-02-16T01:10:51;58.80;;;27.05;;
42124;SDS011;27787;44.594;11.046;2024-02-16T01:13:35;56.88;;;26.13;;
42124;SDS011;27787;44.594;11.046;2024-02-16T01:16:20;54.03;;;24.50;;
42124;SDS011;27787;44.594;11.046;2024-02-16T01:19:04;55.17;;;25.58;;
42124;SDS011;27787;44.594;11.046;2024-02-16T01:21:50;60.25;;;25.25;;
42124;SDS011;27787;44.594;11.046;2024-02-16T01:24:36;54.10;;;24.48;;
42124;SDS011;27787;44.594;11.046;2024-02-16T01:27:21;56.25;;;24.80;;
42124;SDS011;27787;44.594;11.046;2024-02-16T01:30:05;53.05;;;23.90;;
42124;SDS011;27787;44.594;11.046;2024-02-16T01:32:50;51.08;;;24.35;;
42124;SDS011;27787;44.594;11.046;2024-02-16T01:35:34;52.35;;;23.63;;
42124;SDS011;27787;44.594;11.046;2024-02-16T01:38:18;53.80;;;25.23;;
42124;SDS011;27787;44.594;11.046;2024-02-16T01:41:03;57.85;;;25.33;;
42124;SDS011;27787;44.594;11.046;2024-02-16T01:43:48;49.20;;;24.48;;
42124;SDS011;27787;44.594;11.046;2024-02-16T01:46:35;63.08;;;26.42;;
42124;SDS011;27787;44.594;11.046;2024-02-16T01:49:20;61.17;;;25.50;;
42124;SDS011;27787;44.594;11.046;2024-02-16T01:52:05;55.67;;;24.92;;
42124;SDS011;27787;44.594;11.046;2024-02-16T01:54:49;50.45;;;22.65;;
42124;SDS011;27787;44.594;11.046;2024-02-16T01:57:34;54.47;;;24.98;;
42124;SDS011;27787;44.594;11.046;2024-02-16T02:00:18;47.63;;;23.83;;
42124;SDS011;27787;44.594;11.046;2024-02-16T02:03:03;55.97;;;25.27;;
42124;SDS011;27787;44.594;11.046;2024-02-16T02:05:47;52.50;;;25.38;;
42124;SDS011;27787;44.594;11.046;2024-02-16T02:08:32;56.13;;;24.48;;
42124;SDS011;27787;44.594;11.046;2024-02-16T02:11:16;58.25;;;24.08;;
42124;SDS011;27787;44.594;11.046;2024-02-16T02:14:01;58.20;;;24.70;;
42124;SDS011;27787;44.594;11.046;2024-02-16T02:16:45;53.40;;;24.92;;
42124;SDS011;27787;44.594;11.046;2024-02-16T02:19:29;58.40;;;24.25;;
42124;SDS011;27787;44.594;11.046;2024-02-16T02:22:17;52.22;;;23.92;;
42124;SDS011;27787;44.594;11.046;2024-02-16T02:25:04;50.50;;;24.67;;
42124;SDS011;27787;44.594;11.046;2024-02-16T02:27:49;55.55;;;24.20;;
42124;SDS011;27787;44.594;11.046;2024-02-16T02:30:33;55.35;;;24.55;;
42124;SDS011;27787;44.594;11.046;2024-02-16T02:33:17;51.78;;;25.08;;
42124;SDS011;27787;44.594;11.046;2024-02-16T02:36:01;56.83;;;23.88;;
42124;SDS011;27787;44.594;11.046;2024-02-16T02:38:48;50.53;;;24.48;;
42124;SDS011;27787;44.594;11.046;2024-02-16T02:41:32;47.13;;;23.80;;
42124;SDS011;27787;44.594;11.046;2024-02-16T02:44:17;46.35;;;22.98;;
42124;SDS011;27787;44.594;11.046;2024-02-16T02:47:03;52.35;;;23.98;;
42124;SDS011;27787;44.594;11.046;2024-02-16T02:49:47;49.58;;;22.98;;
42124;SDS011;27787;44.594;11.046;2024-02-16T02:52:31;47.90;;;23.95;;
42124;SDS011;27787;44.594;11.046;2024-02-16T02:55:15;51.72;;;23.63;;
42124;SDS011;27787;44.594;11.046;2024-02-16T02:58:00;50.17;;;24.20;;
42124;SDS011;27787;44.594;11.046;2024-02-16T03:00:44;54.75;;;24.58;;
42124;SDS011;27787;44.594;11.046;2024-02-16T03:03:29;45.55;;;21.83;;
42124;SDS011;27787;44.594;11.046;2024-02-16T03:06:16;50.58;;;22.67;;
42124;SDS011;27787;44.594;11.046;2024-02-16T03:09:01;47.58;;;23.17;;
42124;SDS011;27787;44.594;11.046;2024-02-16T03:11:45;44.38;;;21.98;;
42124;SDS011;27787;44.594;11.046;2024-02-16T03:14:30;47.42;;;21.98;;
42124;SDS011;27787;44.594;11.046;2024-02-16T03:17:14;46.67;;;22.60;;
42124;SDS011;27787;44.594;11.046;2024-02-16T03:19:58;49.35;;;21.20;;
42124;SDS011;27787;44.594;11.046;2024-02-16T03:22:42;46.22;;;21.33;;
42124;SDS011;27787;44.594;11.046;2024-02-16T03:25:27;52.92;;;22.50;;
42124;SDS011;27787;44.594;11.046;2024-02-16T03:28:12;45.80;;;22.65;;
42124;SDS011;27787;44.594;11.046;2024-02-16T03:30:56;50.70;;;23.10;;
42124;SDS011;27787;44.594;11.046;2024-02-16T03:33:40;45.13;;;21.35;;
42124;SDS011;27787;44.594;11.046;2024-02-16T03:36:24;52.83;;;22.77;;
42124;SDS011;27787;44.594;11.046;2024-02-16T03:39:08;47.40;;;21.70;;
42124;SDS011;27787;44.594;11.046;2024-02-16T03:41:52;45.80;;;21.92;;
42124;SDS011;27787;44.594;11.046;2024-02-16T03:44:37;48.00;;;22.42;;
42124;SDS011;27787;44.594;11.046;2024-02-16T03:47:21;52.60;;;23.58;;
42124;SDS011;27787;44.594;11.046;2024-02-16T03:50:05;47.03;;;21.88;;
42124;SDS011;27787;44.594;11.046;2024-02-16T03:52:50;50.43;;;21.33;;
42124;SDS011;27787;44.594;11.046;2024-02-16T03:55:34;43.80;;;23.15;;
42124;SDS011;27787;44.594;11.046;2024-02-16T04:01:05;39.88;;;20.33;;
42124;SDS011;27787;44.594;11.046;2024-02-16T04:03:50;38.10;;;20.35;;
42124;SDS011;27787;44.594;11.046;2024-02-16T04:06:36;50.97;;;21.40;;
42124;SDS011;27787;44.594;11.046;2024-02-16T04:09:21;48.17;;;22.05;;
42124;SDS011;27787;44.594;11.046;2024-02-16T04:12:05;47.13;;;22.17;;
42124;SDS011;27787;44.594;11.046;2024-02-16T04:14:49;42.38;;;20.63;;
42124;SDS011;27787;44.594;11.046;2024-02-16T04:17:33;46.28;;;23.00;;
42124;SDS011;27787;44.594;11.046;2024-02-16T04:20:18;48.88;;;22.67;;
42124;SDS011;27787;44.594;11.046;2024-02-16T04:23:02;56.80;;;24.57;;
42124;SDS011;27787;44.594;11.046;2024-02-16T04:25:47;51.80;;;24.30;;
42124;SDS011;27787;44.594;11.046;2024-02-16T04:28:31;49.90;;;23.73;;
42124;SDS011;27787;44.594;11.046;2024-02-16T04:31:15;59.33;;;25.33;;
42124;SDS011;27787;44.594;11.046;2024-02-16T04:33:59;52.47;;;24.95;;
42124;SDS011;27787;44.594;11.046;2024-02-16T04:36:43;50.45;;;23.90;;
42124;SDS011;27787;44.594;11.046;2024-02-16T04:39:27;47.95;;;23.42;;
42124;SDS011;27787;44.594;11.046;2024-02-16T04:44:57;55.47;;;23.52;;
42124;SDS011;27787;44.594;11.046;2024-02-16T04:47:42;48.13;;;23.17;;
42124;SDS011;27787;44.594;11.046;2024-02-16T04:50:26;54.50;;;23.70;;
42124;SDS011;27787;44.594;11.046;2024-02-16T04:53:11;53.72;;;24.85;;
42124;SDS011;27787;44.594;11.046;2024-02-16T04:55:55;58.38;;;26.23;;
42124;SDS011;27787;44.594;11.046;2024-02-16T04:58:40;66.90;;;28.57;;
42124;SDS011;27787;44.594;11.046;2024-02-16T05:01:25;55.22;;;24.80;;
42124;SDS011;27787;44.594;11.046;2024-02-16T05:04:09;52.60;;;24.73;;
42124;SDS011;27787;44.594;11.046;2024-02-16T05:06:54;54.10;;;24.83;;
42124;SDS011;27787;44.594;11.046;2024-02-16T05:09:41;58.20;;;24.42;;
42124;SDS011;27787;44.594;11.046;2024-02-16T05:12:26;57.53;;;24.65;;
42124;SDS011;27787;44.594;11.046;2024-02-16T05:15:11;51.92;;;23.77;;
42124;SDS011;27787;44.594;11.046;2024-02-16T05:17:59;49.13;;;23.00;;
42124;SDS011;27787;44.594;11.046;2024-02-16T05:20:44;51.97;;;23.73;;
42124;SDS011;27787;44.594;11.046;2024-02-16T05:23:28;57.55;;;24.48;;
42124;SDS011;27787;44.594;11.046;2024-02-16T05:26:11;60.63;;;26.05;;
42124;SDS011;27787;44.594;11.046;2024-02-16T05:28:55;51.95;;;24.60;;
42124;SDS011;27787;44.594;11.046;2024-02-16T05:31:39;51.13;;;24.02;;
42124;SDS011;27787;44.594;11.046;2024-02-16T05:34:24;51.35;;;25.35;;
42124;SDS011;27787;44.594;11.046;2024-02-16T05:37:08;60.88;;;28.75;;
42124;SDS011;27787;44.594;11.046;2024-02-16T05:39:53;63.15;;;27.85;;
42124;SDS011;27787;44.594;11.046;2024-02-16T05:42:37;59.85;;;28.80;;
42124;SDS011;27787;44.594;11.046;2024-02-16T05:45:22;59.83;;;26.65;;
42124;SDS011;27787;44.594;11.046;2024-02-16T05:48:06;65.18;;;28.58;;
42124;SDS011;27787;44.594;11.046;2024-02-16T05:50:51;57.83;;;27.45;;
42124;SDS011;27787;44.594;11.046;2024-02-16T05:53:35;65.00;;;25.85;;
42124;SDS011;27787;44.594;11.046;2024-02-16T05:56:19;53.60;;;26.50;;
42124;SDS011;27787;44.594;11.046;2024-02-16T05:59:04;51.97;;;24.58;;
42124;SDS011;27787;44.594;11.046;2024-02-16T06:01:49;53.00;;;24.88;;
42124;SDS011;27787;44.594;11.046;2024-02-16T06:04:33;48.85;;;24.35;;
42124;SDS011;27787;44.594;11.046;2024-02-16T06:07:17;60.55;;;26.65;;
42124;SDS011;27787;44.594;11.046;2024-02-16T06:10:02;55.03;;;26.00;;
42124;SDS011;27787;44.594;11.046;2024-02-16T06:12:49;54.97;;;24.33;;
42124;SDS011;27787;44.594;11.046;2024-02-16T06:15:34;52.40;;;24.20;;
42124;SDS011;27787;44.594;11.046;2024-02-16T06:18:17;54.08;;;25.25;;
42124;SDS011;27787;44.594;11.046;2024-02-16T06:21:02;57.58;;;25.58;;
42124;SDS011;27787;44.594;11.046;2024-02-16T06:23:47;51.50;;;23.73;;
42124;SDS011;27787;44.594;11.046;2024-02-16T06:26:31;57.75;;;25.33;;
42124;SDS011;27787;44.594;11.046;2024-02-16T06:29:15;54.90;;;24.63;;
42124;SDS011;27787;44.594;11.046;2024-02-16T06:31:59;49.03;;;23.25;;
42124;SDS011;27787;44.594;11.046;2024-02-16T06:34:46;53.13;;;24.65;;
42124;SDS011;27787;44.594;11.046;2024-02-16T06:37:29;51.20;;;24.45;;
42124;SDS011;27787;44.594;11.046;2024-02-16T06:40:15;53.67;;;23.92;;
42124;SDS011;27787;44.594;11.046;2024-02-16T06:42:59;55.05;;;25.05;;
42124;SDS011;27787;44.594;11.046;2024-02-16T06:45:44;55.70;;;25.90;;
42124;SDS011;27787;44.594;11.046;2024-02-16T06:48:28;60.67;;;24.45;;
42124;SDS011;27787;44.594;11.046;2024-02-16T06:51:12;60.45;;;24.80;;
42124;SDS011;27787;44.594;11.046;2024-02-16T06:53:56;60.10;;;25.48;;
42124;SDS011;27787;44.594;11.046;2024-02-16T06:56:41;52.58;;;23.23;;
42124;SDS011;27787;44.594;11.046;2024-02-16T06:59:25;53.45;;;23.85;;
42124;SDS011;27787;44.594;11.046;2024-02-16T07:02:09;51.83;;;23.85;;
42124;SDS011;27787;44.594;11.046;2024-02-16T07:04:54;52.13;;;24.42;;
42124;SDS011;27787;44.594;11.046;2024-02-16T07:07:38;68.88;;;25.65;;
42124;SDS011;27787;44.594;11.046;2024-02-16T07:10:22;58.55;;;25.83;;
42124;SDS011;27787;44.594;11.046;2024-02-16T07:13:06;49.90;;;24.45;;
42124;SDS011;27787;44.594;11.046;2024-02-16T07:15:50;56.65;;;24.05;;
42124;SDS011;27787;44.594;11.046;2024-02-16T07:18:35;53.00;;;24.27;;
42124;SDS011;27787;44.594;11.046;2024-02-16T07:21:20;55.88;;;24.52;;
42124;SDS011;27787;44.594;11.046;2024-02-16T07:24:05;67.57;;;24.58;;
42124;SDS011;27787;44.594;11.046;2024-02-16T07:26:50;52.08;;;25.48;;
42124;SDS011;27787;44.594;11.046;2024-02-16T07:29:34;51.67;;;24.40;;
42124;SDS011;27787;44.594;11.046;2024-02-16T07:32:19;59.30;;;27.27;;
42124;SDS011;27787;44.594;11.046;2024-02-16T07:35:03;49.85;;;24.17;;
42124;SDS011;27787;44.594;11.046;2024-02-16T07:37:48;46.83;;;23.48;;
42124;SDS011;27787;44.594;11.046;2024-02-16T16:41:56;107.25;;;42.65;;
42124;SDS011;27787;44.594;11.046;2024-02-16T16:44:41;99.53;;;43.57;;
42124;SDS011;27787;44.594;11.046;2024-02-16T16:47:25;102.10;;;45.33;;
42124;SDS011;27787;44.594;11.046;2024-02-16T16:50:10;109.90;;;46.13;;
42124;SDS011;27787;44.594;11.046;2024-02-16T16:52:54;98.43;;;44.03;;
42124;SDS011;27787;44.594;11.046;2024-02-16T16:55:38;94.60;;;43.58;;
42124;SDS011;27787;44.594;11.046;2024-02-16T16:58:23;102.10;;;44.65;;
42124;SDS011;27787;44.594;11.046;2024-02-16T17:01:07;103.50;;;44.78;;
42124;SDS011;27787;44.594;11.046;2024-02-16T17:03:52;103.25;;;45.55;;
42124;SDS011;27787;44.594;11.046;2024-02-16T17:06:37;112.33;;;47.50;;
42124;SDS011;27787;44.594;11.046;2024-02-16T17:09:21;101.90;;;47.38;;
42124;SDS011;27787;44.594;11.046;2024-02-16T17:12:06;109.40;;;47.30;;
42124;SDS011;27787;44.594;11.046;2024-02-16T17:14:50;107.60;;;46.03;;
42124;SDS011;27787;44.594;11.046;2024-02-16T17:17:35;114.72;;;46.60;;
42124;SDS011;27787;44.594;11.046;2024-02-16T17:20:19;111.38;;;47.75;;
42124;SDS011;27787;44.594;11.046;2024-02-16T17:23:08;109.93;;;46.75;;
42124;SDS011;27787;44.594;11.046;2024-02-16T17:25:53;105.15;;;47.90;;
42124;SDS011;27787;44.594;11.046;2024-02-16T17:28:38;111.05;;;47.65;;
42124;SDS011;27787;44.594;11.046;2024-02-16T17:31:22;109.32;;;48.72;;
42124;SDS011;27787;44.594;11.046;2024-02-16T17:34:07;104.82;;;47.15;;
42124;SDS011;27787;44.594;11.046;2024-02-16T17:36:52;117.13;;;47.25;;
42124;SDS011;27787;44.594;11.046;2024-02-16T17:39:36;112.20;;;46.58;;
42124;SDS011;27787;44.594;11.046;2024-02-16T17:42:21;103.68;;;47.17;;
42124;SDS011;27787;44.594;11.046;2024-02-16T17:45:05;107.95;;;48.53;;
42124;SDS011;27787;44.594;11.046;2024-02-16T17:47:50;114.22;;;47.80;;
42124;SDS011;27787;44.594;11.046;2024-02-16T17:50:34;117.53;;;50.45;;
42124;SDS011;27787;44.594;11.046;2024-02-16T17:53:18;108.05;;;47.13;;
42124;SDS011;27787;44.594;11.046;2024-02-16T17:56:02;113.07;;;49.70;;
42124;SDS011;27787;44.594;11.046;2024-02-16T17:58:47;110.18;;;49.10;;
42124;SDS011;27787;44.594;11.046;2024-02-16T18:01:32;110.70;;;48.95;;
42124;SDS011;27787;44.594;11.046;2024-02-16T18:04:16;109.38;;;47.53;;
42124;SDS011;27787;44.594;11.046;2024-02-16T18:07:00;111.30;;;49.22;;
42124;SDS011;27787;44.594;11.046;2024-02-16T18:09:44;113.80;;;48.85;;
42124;SDS011;27787;44.594;11.046;2024-02-16T18:12:29;111.33;;;46.83;;
42124;SDS011;27787;44.594;11.046;2024-02-16T18:15:13;102.13;;;46.05;;
42124;SDS011;27787;44.594;11.046;2024-02-16T18:17:56;100.90;;;45.28;;
42124;SDS011;27787;44.594;11.046;2024-02-16T18:20:41;100.72;;;45.58;;
42124;SDS011;27787;44.594;11.046;2024-02-16T18:23:26;104.03;;;45.22;;
42124;SDS011;27787;44.594;11.046;2024-02-16T18:26:12;111.15;;;45.75;;
42124;SDS011;27787;44.594;11.046;2024-02-16T18:28:59;109.07;;;47.65;;
42124;SDS011;27787;44.594;11.046;2024-02-16T18:31:43;107.50;;;46.35;;
42124;SDS011;27787;44.594;11.046;2024-02-16T18:34:27;102.05;;;46.92;;
42124;SDS011;27787;44.594;11.046;2024-02-16T18:37:11;109.68;;;45.95;;
42124;SDS011;27787;44.594;11.046;2024-02-16T18:39:56;107.15;;;45.72;;
42124;SDS011;27787;44.594;11.046;2024-02-16T18:42:40;104.75;;;47.75;;
42124;SDS011;27787;44.594;11.046;2024-02-16T18:45:24;109.78;;;47.95;;
42124;SDS011;27787;44.594;11.046;2024-02-16T18:48:09;115.07;;;46.60;;
42124;SDS011;27787;44.594;11.046;2024-02-16T18:50:54;110.45;;;47.53;;
42124;SDS011;27787;44.594;11.046;2024-02-16T18:53:38;106.25;;;45.47;;
42124;SDS011;27787;44.594;11.046;2024-02-16T18:56:24;114.93;;;44.72;;
42124;SDS011;27787;44.594;11.046;2024-02-16T18:59:09;118.75;;;47.92;;
42124;SDS011;27787;44.594;11.046;2024-02-16T19:01:53;104.07;;;46.05;;
42124;SDS011;27787;44.594;11.046;2024-02-16T19:04:44;98.68;;;44.85;;
42124;SDS011;27787;44.594;11.046;2024-02-16T19:07:28;105.15;;;47.17;;
42124;SDS011;27787;44.594;11.046;2024-02-16T19:10:12;102.50;;;45.63;;
42124;SDS011;27787;44.594;11.046;2024-02-16T19:12:56;104.40;;;45.65;;
42124;SDS011;27787;44.594;11.046;2024-02-16T19:15:41;103.57;;;46.92;;
42124;SDS011;27787;44.594;11.046;2024-02-16T19:18:25;104.65;;;46.10;;
42124;SDS011;27787;44.594;11.046;2024-02-16T19:21:09;114.68;;;47.13;;
42124;SDS011;27787;44.594;11.046;2024-02-16T19:23:54;117.97;;;50.10;;
42124;SDS011;27787;44.594;11.046;2024-02-16T19:26:39;112.28;;;50.20;;
42124;SDS011;27787;44.594;11.046;2024-02-16T19:29:24;124.78;;;49.13;;
42124;SDS011;27787;44.594;11.046;2024-02-16T19:32:07;115.07;;;48.05;;
42124;SDS011;27787;44.594;11.046;2024-02-16T19:34:51;110.50;;;48.42;;
42124;SDS011;27787;44.594;11.046;2024-02-16T19:37:36;117.28;;;48.50;;
42124;SDS011;27787;44.594;11.046;2024-02-16T19:40:21;113.30;;;49.22;;
42124;SDS011;27787;44.594;11.046;2024-02-16T19:43:05;117.85;;;50.15;;
42124;SDS011;27787;44.594;11.046;2024-02-16T19:45:50;116.63;;;50.90;;
42124;SDS011;27787;44.594;11.046;2024-02-16T19:48:34;122.53;;;51.33;;
42124;SDS011;27787;44.594;11.046;2024-02-16T19:51:19;111.10;;;48.15;;
42124;SDS011;27787;44.594;11.046;2024-02-16T19:54:05;105.88;;;47.08;;
42124;SDS011;27787;44.594;11.046;2024-02-16T19:56:50;111.55;;;47.78;;
42124;SDS011;27787;44.594;11.046;2024-02-16T19:59:34;106.22;;;47.78;;
42124;SDS011;27787;44.594;11.046;2024-02-16T20:02:19;104.82;;;46.60;;
42124;SDS011;27787;44.594;11.046;2024-02-16T20:05:03;111.05;;;47.67;;
42124;SDS011;27787;44.594;11.046;2024-02-16T20:07:48;108.57;;;46.80;;
42124;SDS011;27787;44.594;11.046;2024-02-16T20:10:33;98.05;;;44.97;;
42124;SDS011;27787;44.594;11.046;2024-02-16T20:13:17;102.32;;;47.35;;
42124;SDS011;27787;44.594;11.046;2024-02-16T20:16:01;104.68;;;45.60;;
42124;SDS011;27787;44.594;11.046;2024-02-16T20:18:48;100.90;;;47.60;;
42124;SDS011;27787;44.594;11.046;2024-02-16T20:21:33;105.20;;;46.80;;
42124;SDS011;27787;44.594;11.046;2024-02-16T20:24:18;105.43;;;47.80;;
42124;SDS011;27787;44.594;11.046;2024-02-16T20:27:03;105.32;;;47.67;;
42124;SDS011;27787;44.594;11.046;2024-02-16T20:29:49;98.75;;;45.03;;
42124;SDS011;27787;44.594;11.046;2024-02-16T20:32:33;101.45;;;46.50;;
42124;SDS011;27787;44.594;11.046;2024-02-16T20:35:18;114.43;;;47.50;;
42124;SDS011;27787;44.594;11.046;2024-02-16T20:38:03;98.53;;;44.63;;
42124;SDS011;27787;44.594;11.046;2024-02-16T20:40:47;99.28;;;45.83;;
42124;SDS011;27787;44.594;11.046;2024-02-16T20:43:31;96.65;;;45.83;;
42124;SDS011;27787;44.594;11.046;2024-02-16T20:46:16;99.00;;;45.53;;
42124;SDS011;27787;44.594;11.046;2024-02-16T20:49:01;107.47;;;45.58;;
42124;SDS011;27787;44.594;11.046;2024-02-16T20:51:45;103.63;;;46.92;;
42124;SDS011;27787;44.594;11.046;2024-02-16T20:54:33;100.53;;;45.38;;
42124;SDS011;27787;44.594;11.046;2024-02-16T20:57:18;105.97;;;46.80;;
42124;SDS011;27787;44.594;11.046;2024-02-16T21:00:03;95.43;;;44.47;;
42124;SDS011;27787;44.594;11.046;2024-02-16T21:02:51;98.95;;;45.60;;
42124;SDS011;27787;44.594;11.046;2024-02-16T21:05:37;95.28;;;45.75;;
42124;SDS011;27787;44.594;11.046;2024-02-16T21:08:21;106.55;;;45.83;;
42124;SDS011;27787;44.594;11.046;2024-02-16T21:11:05;96.63;;;44.70;;
42124;SDS011;27787;44.594;11.046;2024-02-16T21:13:50;106.60;;;44.97;;
42124;SDS011;27787;44.594;11.046;2024-02-16T21:16:34;96.97;;;44.08;;
42124;SDS011;27787;44.594;11.046;2024-02-16T21:19:18;105.07;;;47.40;;
42124;SDS011;27787;44.594;11.046;2024-02-16T21:22:04;102.55;;;46.78;;
42124;SDS011;27787;44.594;11.046;2024-02-16T21:24:48;107.65;;;47.80;;
42124;SDS011;27787;44.594;11.046;2024-02-16T21:27:33;113.70;;;47.30;;
42124;SDS011;27787;44.594;11.046;2024-02-16T21:30:17;111.32;;;48.33;;
42124;SDS011;27787;44.594;11.046;2024-02-16T21:33:01;105.60;;;46.67;;
42124;SDS011;27787;44.594;11.046;2024-02-16T21:35:50;106.53;;;49.83;;
42124;SDS011;27787;44.594;11.046;2024-02-16T21:38:38;113.25;;;51.40;;
42124;SDS011;27787;44.594;11.046;2024-02-16T21:41:23;108.13;;;50.60;;
42124;SDS011;27787;44.594;11.046;2024-02-16T21:44:07;124.72;;;54.75;;
42124;SDS011;27787;44.594;11.046;2024-02-16T21:46:51;127.00;;;52.45;;
42124;SDS011;27787;44.594;11.046;2024-02-16T21:49:36;118.97;;;54.08;;
42124;SDS011;27787;44.594;11.046;2024-02-16T21:52:21;116.13;;;53.15;;
42124;SDS011;27787;44.594;11.046;2024-02-16T21:55:05;115.88;;;52.53;;
42124;SDS011;27787;44.594;11.046;2024-02-16T21:57:50;108.57;;;51.47;;
42124;SDS011;27787;44.594;11.046;2024-02-16T22:00:34;115.45;;;53.08;;
42124;SDS011;27787;44.594;11.046;2024-02-16T22:03:18;119.43;;;52.13;;
42124;SDS011;27787;44.594;11.046;2024-02-16T22:06:02;122.88;;;56.67;;
42124;SDS011;27787;44.594;11.046;2024-02-16T22:08:50;118.63;;;53.92;;
42124;SDS011;27787;44.594;11.046;2024-02-16T22:11:35;126.15;;;55.10;;
42124;SDS011;27787;44.594;11.046;2024-02-16T22:14:20;124.60;;;54.50;;
42124;SDS011;27787;44.594;11.046;2024-02-16T22:17:04;125.93;;;55.78;;
42124;SDS011;27787;44.594;11.046;2024-02-16T22:19:48;121.10;;;55.40;;
42124;SDS011;27787;44.594;11.046;2024-02-16T22:22:33;125.85;;;56.42;;
42124;SDS011;27787;44.594;11.046;2024-02-16T22:25:17;123.28;;;55.30;;
42124;SDS011;27787;44.594;11.046;2024-02-16T22:28:05;126.93;;;53.35;;
42124;SDS011;27787;44.594;11.046;2024-02-16T22:30:49;131.35;;;55.08;;
42124;SDS011;27787;44.594;11.046;2024-02-16T22:33:34;112.90;;;54.58;;
42124;SDS011;27787;44.594;11.046;2024-02-16T22:36:18;120.32;;;53.05;;
42124;SDS011;27787;44.594;11.046;2024-02-16T22:39:02;118.97;;;53.17;;
42124;SDS011;27787;44.594;11.046;2024-02-16T22:41:48;113.90;;;53.92;;
42124;SDS011;27787;44.594;11.046;2024-02-16T22:44:32;114.18;;;52.95;;
42124;SDS011;27787;44.594;11.046;2024-02-16T22:47:16;122.30;;;54.42;;
42124;SDS011;27787;44.594;11.046;2024-02-16T22:50:02;116.13;;;52.83;;
42124;SDS011;27787;44.594;11.046;2024-02-16T22:52:46;116.28;;;53.42;;
42124;SDS011;27787;44.594;11.046;2024-02-16T22:55:30;117.95;;;53.28;;
42124;SDS011;27787;44.594;11.046;2024-02-16T22:58:14;121.10;;;54.20;;
42124;SDS011;27787;44.594;11.046;2024-02-16T23:00:59;115.40;;;52.07;;
42124;SDS011;27787;44.594;11.046;2024-02-16T23:03:44;110.45;;;51.05;;
42124;SDS011;27787;44.594;11.046;2024-02-16T23:06:29;113.60;;;49.95;;
42124;SDS011;27787;44.594;11.046;2024-02-16T23:09:14;119.55;;;55.55;;
42124;SDS011;27787;44.594;11.046;2024-02-16T23:11:58;118.60;;;55.65;;
42124;SDS011;27787;44.594;11.046;2024-02-16T23:14:43;118.20;;;53.03;;
42124;SDS011;27787;44.594;11.046;2024-02-16T23:17:27;111.75;;;52.60;;
42124;SDS011;27787;44.594;11.046;2024-02-16T23:20:12;112.47;;;52.25;;
42124;SDS011;27787;44.594;11.046;2024-02-16T23:22:58;123.22;;;55.83;;
42124;SDS011;27787;44.594;11.046;2024-02-16T23:25:58;109.07;;;51.85;;
42124;SDS011;27787;44.594;11.046;2024-02-16T23:28:43;109.57;;;53.08;;
42124;SDS011;27787;44.594;11.046;2024-02-16T23:31:28;113.60;;;53.35;;
42124;SDS011;27787;44.594;11.046;2024-02-16T23:34:12;111.63;;;53.03;;
42124;SDS011;27787;44.594;11.046;2024-02-16T23:36:57;117.32;;;54.38;;
42124;SDS011;27787;44.594;11.046;2024-02-16T23:39:42;114.72;;;52.83;;
42124;SDS011;27787;44.594;11.046;2024-02-16T23:42:25;112.00;;;52.40;;
42124;SDS011;27787;44.594;11.046;2024-02-16T23:45:10;111.32;;;52.38;;
42124;SDS011;27787;44.594;11.046;2024-02-16T23:47:55;108.95;;;52.75;;
42124;SDS011;27787;44.594;11.046;2024-02-16T23:53:25;105.00;;;50.08;;
42124;SDS011;27787;44.594;11.046;2024-02-16T23:56:09;112.78;;;53.30;;
42124;SDS011;27787;44.594;11.046;2024-02-16T23:58:53;108.72;;;50.88;;
